createdAt,value
2018-09-13T00:00:17.675Z,19.50
2018-09-13T00:02:45.628Z,19.40
2018-09-13T00:05:13.596Z,19.50
2018-09-13T00:07:41.604Z,19.50
2018-09-13T00:10:09.548Z,19.40
2018-09-13T00:12:37.528Z,19.30
2018-09-13T00:15:06.303Z,19.30
2018-09-13T00:17:34.280Z,19.30
2018-09-13T00:20:02.227Z,19.20
2018-09-13T00:22:30.205Z,19.00
2018-09-13T00:24:58.193Z,19.10
2018-09-13T00:27:26.168Z,19.10
2018-09-13T00:29:54.140Z,19.00
2018-09-13T00:32:22.090Z,19.00
2018-09-13T00:34:50.032Z,19.00
2018-09-13T00:37:18.008Z,19.10
2018-09-13T00:39:45.952Z,19.00
2018-09-13T00:42:14.059Z,19.00
2018-09-13T00:44:42.049Z,18.90
2018-09-13T00:47:12.332Z,19.00
2018-09-13T00:49:40.949Z,18.90
2018-09-13T00:52:09.083Z,18.90
2018-09-13T00:54:37.916Z,19.00
2018-09-13T00:57:05.900Z,18.90
2018-09-13T00:59:33.983Z,18.80
2018-09-13T01:02:01.939Z,18.90
2018-09-13T01:04:29.892Z,18.90
2018-09-13T01:06:57.865Z,18.90
2018-09-13T01:09:25.803Z,18.80
2018-09-13T01:11:53.762Z,18.70
2018-09-13T01:14:22.021Z,18.50
2018-09-13T01:16:50.073Z,18.80
2018-09-13T01:19:18.030Z,18.90
2018-09-13T01:21:46.016Z,18.80
2018-09-13T01:24:13.947Z,18.70
2018-09-13T01:26:41.944Z,18.60
2018-09-13T01:29:09.908Z,18.80
2018-09-13T01:31:37.866Z,18.80
2018-09-13T01:34:05.922Z,18.70
2018-09-13T01:36:33.905Z,18.50
2018-09-13T01:39:01.926Z,18.50
2018-09-13T01:41:29.883Z,18.50
2018-09-13T01:43:57.839Z,18.50
2018-09-13T01:46:25.795Z,18.60
2018-09-13T01:48:53.741Z,18.60
2018-09-13T01:51:21.712Z,18.70
2018-09-13T01:53:49.680Z,18.70
2018-09-13T01:56:17.646Z,18.70
2018-09-13T01:58:45.615Z,18.60
2018-09-13T02:01:13.704Z,18.60
2018-09-13T02:03:41.759Z,18.70
2018-09-13T02:06:09.738Z,18.70
2018-09-13T02:08:37.677Z,18.50
2018-09-13T02:11:05.661Z,18.40
2018-09-13T02:13:33.668Z,18.40
2018-09-13T02:16:01.723Z,18.40
2018-09-13T02:18:29.721Z,18.50
2018-09-13T02:20:57.694Z,18.60
2018-09-13T02:23:25.662Z,18.60
2018-09-13T02:25:53.599Z,18.60
2018-09-13T02:28:21.563Z,18.70
2018-09-13T02:30:49.536Z,18.60
2018-09-13T02:33:17.495Z,18.50
2018-09-13T02:35:45.446Z,18.50
2018-09-13T02:38:13.419Z,18.60
2018-09-13T02:40:41.437Z,18.50
2018-09-13T02:43:09.399Z,18.20
2018-09-13T02:45:37.367Z,18.40
2018-09-13T02:48:05.580Z,18.40
2018-09-13T02:50:33.586Z,18.30
2018-09-13T02:53:01.553Z,18.20
2018-09-13T02:55:29.516Z,18.40
2018-09-13T02:57:57.460Z,18.60
2018-09-13T03:00:25.424Z,18.60
2018-09-13T03:02:53.370Z,18.70
2018-09-13T03:05:21.291Z,18.50
2018-09-13T03:07:49.259Z,18.40
2018-09-13T03:10:17.218Z,18.40
2018-09-13T03:12:45.180Z,18.50
2018-09-13T03:15:13.473Z,18.60
2018-09-13T03:17:41.454Z,18.50
2018-09-13T03:20:09.427Z,18.50
2018-09-13T03:22:37.388Z,18.50
2018-09-13T03:25:05.617Z,18.30
2018-09-13T03:27:33.705Z,18.20
2018-09-13T03:30:01.644Z,18.10
2018-09-13T03:32:29.605Z,18.00
2018-09-13T03:34:57.547Z,18.10
2018-09-13T03:37:25.541Z,18.00
2018-09-13T03:39:53.599Z,17.90
2018-09-13T03:42:21.618Z,18.00
2018-09-13T03:44:49.572Z,18.00
2018-09-13T03:47:17.558Z,18.10
2018-09-13T03:49:45.516Z,18.20
2018-09-13T03:52:13.489Z,18.30
2018-09-13T03:54:41.440Z,18.30
2018-09-13T03:57:09.407Z,18.30
2018-09-13T03:59:37.414Z,18.20
2018-09-13T04:02:05.428Z,18.30
2018-09-13T04:04:33.396Z,18.30
2018-09-13T04:07:04.438Z,18.20
2018-09-13T04:09:32.382Z,18.20
2018-09-13T04:12:00.381Z,18.10
2018-09-13T04:14:28.439Z,18.10
2018-09-13T04:16:56.439Z,18.00
2018-09-13T04:19:28.707Z,18.00
2018-09-13T04:21:56.666Z,18.00
2018-09-13T04:24:24.624Z,18.00
2018-09-13T04:26:52.604Z,18.00
2018-09-13T04:29:20.567Z,18.10
2018-09-13T04:31:48.542Z,18.00
2018-09-13T04:34:16.491Z,18.10
2018-09-13T04:36:44.525Z,18.00
2018-09-13T04:39:13.060Z,17.80
2018-09-13T04:41:41.033Z,17.70
2018-09-13T04:44:09.048Z,17.70
2018-09-13T04:46:37.095Z,17.70
2018-09-13T04:49:05.520Z,17.70
2018-09-13T04:51:33.436Z,17.80
2018-09-13T04:54:01.394Z,17.70
2018-09-13T04:56:29.394Z,17.80
2018-09-13T04:58:57.400Z,17.70
2018-09-13T05:01:25.459Z,17.70
2018-09-13T05:03:53.386Z,17.80
2018-09-13T05:06:21.469Z,17.80
2018-09-13T05:08:49.476Z,17.70
2018-09-13T05:11:17.532Z,17.80
2018-09-13T05:13:45.538Z,17.80
2018-09-13T05:16:13.503Z,17.80
2018-09-13T05:18:41.554Z,17.80
2018-09-13T05:21:09.595Z,17.80
2018-09-13T05:23:37.530Z,17.80
2018-09-13T05:26:05.563Z,17.80
2018-09-13T05:28:33.511Z,17.80
2018-09-13T05:31:01.487Z,17.80
2018-09-13T05:33:29.438Z,17.70
2018-09-13T05:35:57.422Z,17.60
2018-09-13T05:38:25.361Z,17.60
2018-09-13T05:40:53.501Z,17.60
2018-09-13T05:43:21.436Z,17.50
2018-09-13T05:45:49.456Z,17.50
2018-09-13T05:48:17.408Z,17.60
2018-09-13T05:50:45.398Z,17.60
2018-09-13T05:53:13.476Z,17.50
2018-09-13T05:55:41.436Z,17.60
2018-09-13T05:58:09.507Z,17.70
2018-09-13T06:00:37.591Z,17.70
2018-09-13T06:03:05.753Z,17.70
2018-09-13T06:05:34.098Z,17.70
2018-09-13T06:08:02.135Z,17.70
2018-09-13T06:10:30.753Z,17.70
2018-09-13T06:12:58.716Z,17.80
2018-09-13T06:15:26.965Z,17.80
2018-09-13T06:17:55.085Z,17.80
2018-09-13T06:20:23.132Z,17.80
2018-09-13T06:22:51.138Z,17.70
2018-09-13T06:25:19.086Z,17.60
2018-09-13T06:27:47.304Z,17.50
2018-09-13T06:30:15.279Z,17.50
2018-09-13T06:32:43.232Z,17.50
2018-09-13T06:35:11.277Z,17.50
2018-09-13T06:37:39.363Z,17.60
2018-09-13T06:40:07.362Z,17.60
2018-09-13T06:42:35.427Z,17.70
2018-09-13T06:45:03.334Z,17.80
2018-09-13T06:47:31.303Z,17.90
2018-09-13T06:49:59.273Z,18.00
2018-09-13T06:52:27.281Z,17.90
2018-09-13T06:54:58.045Z,17.90
2018-09-13T06:57:26.213Z,17.70
2018-09-13T06:59:54.189Z,17.70
2018-09-13T07:02:22.335Z,17.50
2018-09-13T07:04:50.239Z,17.50
2018-09-13T07:07:18.225Z,17.60
2018-09-13T07:09:46.232Z,17.50
2018-09-13T07:12:14.188Z,17.40
2018-09-13T07:14:42.324Z,17.50
2018-09-13T07:17:10.295Z,17.60
2018-09-13T07:19:38.382Z,17.80
2018-09-13T07:22:06.626Z,17.80
2018-09-13T07:24:34.657Z,17.80
2018-09-13T07:27:02.649Z,17.80
2018-09-13T07:29:30.656Z,17.80
2018-09-13T07:31:58.618Z,17.90
2018-09-13T07:34:26.557Z,17.90
2018-09-13T07:36:54.598Z,17.90
2018-09-13T07:39:22.591Z,17.90
2018-09-13T07:41:50.548Z,17.90
2018-09-13T07:44:18.514Z,17.90
2018-09-13T07:46:46.488Z,18.00
2018-09-13T07:49:14.567Z,18.00
2018-09-13T07:51:42.463Z,18.00
2018-09-13T07:54:10.443Z,18.00
2018-09-13T07:56:38.408Z,18.00
2018-09-13T07:59:06.551Z,17.90
2018-09-13T08:01:34.600Z,17.90
2018-09-13T08:04:02.722Z,18.00
2018-09-13T08:06:30.739Z,17.90
2018-09-13T08:08:58.692Z,17.90
2018-09-13T08:11:26.652Z,17.90
2018-09-13T08:13:54.714Z,17.90
2018-09-13T08:16:22.735Z,17.80
2018-09-13T08:18:50.693Z,17.80
2018-09-13T08:21:18.630Z,17.90
2018-09-13T08:23:46.566Z,17.90
2018-09-13T08:26:17.521Z,17.90
2018-09-13T08:28:45.479Z,18.00
2018-09-13T08:31:13.420Z,18.10
2018-09-13T08:33:41.380Z,18.20
2018-09-13T08:36:09.352Z,18.20
2018-09-13T08:38:37.290Z,18.10
2018-09-13T08:41:05.343Z,18.00
2018-09-13T08:43:33.268Z,18.10
2018-09-13T08:46:01.233Z,18.10
2018-09-13T08:48:29.224Z,18.20
2018-09-13T08:50:57.183Z,18.20
2018-09-13T08:53:25.306Z,18.10
2018-09-13T08:55:53.239Z,18.00
2018-09-13T08:58:21.196Z,18.10
2018-09-13T09:00:49.275Z,18.10
2018-09-13T09:03:17.212Z,18.10
2018-09-13T09:05:45.156Z,18.20
2018-09-13T09:08:13.119Z,18.20
2018-09-13T09:10:41.111Z,18.20
2018-09-13T09:13:09.340Z,18.20
2018-09-13T09:15:37.336Z,18.20
2018-09-13T09:18:05.844Z,18.10
2018-09-13T09:20:33.800Z,18.10
2018-09-13T09:23:01.749Z,18.20
2018-09-13T09:25:29.692Z,18.20
2018-09-13T09:27:57.654Z,18.20
2018-09-13T09:30:25.604Z,18.20
2018-09-13T09:32:53.553Z,18.30
2018-09-13T09:35:21.764Z,18.30
2018-09-13T09:37:49.719Z,18.40
2018-09-13T09:40:17.673Z,18.40
2018-09-13T09:42:49.209Z,18.40
2018-09-13T09:45:17.205Z,18.40
2018-09-13T09:47:45.411Z,18.30
2018-09-13T09:50:13.438Z,18.30
2018-09-13T09:52:41.355Z,18.30
2018-09-13T09:55:09.324Z,18.30
2018-09-13T09:57:37.306Z,18.30
2018-09-13T10:00:05.253Z,18.30
2018-09-13T10:02:33.332Z,18.30
2018-09-13T10:05:01.267Z,18.40
2018-09-13T10:07:29.230Z,18.40
2018-09-13T10:09:57.167Z,18.20
2018-09-13T10:12:25.154Z,18.10
2018-09-13T10:14:58.526Z,18.20
2018-09-13T10:17:32.099Z,18.30
2018-09-13T10:20:05.497Z,18.30
2018-09-13T10:22:38.813Z,18.30
2018-09-13T10:25:12.423Z,18.20
2018-09-13T10:27:45.880Z,18.20
2018-09-13T10:30:19.429Z,18.30
2018-09-13T10:32:52.825Z,18.10
2018-09-13T10:35:26.264Z,18.20
2018-09-13T10:37:59.579Z,18.30
2018-09-13T10:40:33.038Z,18.40
2018-09-13T10:43:06.235Z,18.40
2018-09-13T10:45:39.647Z,18.50
2018-09-13T10:48:13.251Z,18.50
2018-09-13T10:50:45.574Z,18.50
2018-09-13T10:53:19.657Z,18.50
2018-09-13T10:55:47.660Z,18.60
2018-09-13T10:58:15.576Z,18.50
2018-09-13T11:00:43.510Z,18.50
2018-09-13T11:03:11.652Z,18.60
2018-09-13T11:05:39.627Z,18.50
2018-09-13T11:08:07.676Z,18.60
2018-09-13T11:10:35.734Z,18.60
2018-09-13T11:13:08.632Z,18.60
2018-09-13T11:15:36.874Z,18.70
2018-09-13T11:18:06.040Z,18.70
2018-09-13T11:20:34.236Z,18.80
2018-09-13T11:23:02.183Z,18.80
2018-09-13T11:25:30.126Z,18.80
2018-09-13T11:27:58.093Z,18.90
2018-09-13T11:30:29.732Z,18.90
2018-09-13T11:32:57.596Z,19.00
2018-09-13T11:35:25.662Z,19.00
2018-09-13T11:37:53.600Z,19.00
2018-09-13T11:40:21.664Z,18.90
2018-09-13T11:42:49.505Z,18.90
2018-09-13T11:45:17.724Z,19.00
2018-09-13T11:47:45.716Z,19.00
2018-09-13T11:50:13.694Z,19.00
2018-09-13T11:52:41.663Z,19.10
2018-09-13T11:55:09.617Z,19.10
2018-09-13T11:57:37.651Z,19.20
2018-09-13T12:00:05.673Z,19.20
2018-09-13T12:02:33.599Z,19.20
2018-09-13T12:05:01.729Z,19.30
2018-09-13T12:07:29.781Z,19.20
2018-09-13T12:09:57.724Z,19.30
2018-09-13T12:12:25.679Z,19.30
2018-09-13T12:14:53.641Z,19.30
2018-09-13T12:17:21.596Z,19.30
2018-09-13T12:19:49.551Z,19.30
2018-09-13T12:22:17.530Z,19.30
2018-09-13T12:24:45.512Z,19.20
2018-09-13T12:27:13.512Z,19.30
2018-09-13T12:29:41.450Z,19.30
2018-09-13T12:32:09.476Z,19.30
2018-09-13T12:34:37.701Z,19.30
2018-09-13T12:37:05.395Z,19.30
2018-09-13T12:39:33.535Z,19.40
2018-09-13T12:42:01.492Z,19.30
2018-09-13T12:44:29.448Z,19.40
2018-09-13T12:46:57.401Z,19.40
2018-09-13T12:49:25.399Z,19.20
2018-09-13T12:51:53.372Z,19.20
2018-09-13T12:54:21.318Z,19.20
2018-09-13T12:56:49.341Z,19.30
2018-09-13T12:59:17.266Z,19.30
2018-09-13T13:01:45.211Z,19.30
2018-09-13T13:04:13.196Z,19.30
2018-09-13T13:06:41.264Z,19.30
2018-09-13T13:09:09.956Z,19.40
2018-09-13T13:11:38.056Z,19.30
2018-09-13T13:14:06.158Z,19.40
2018-09-13T13:16:34.419Z,19.30
2018-09-13T13:19:02.369Z,19.30
2018-09-13T13:21:30.350Z,19.40
2018-09-13T13:23:58.299Z,19.40
2018-09-13T13:26:26.234Z,19.50
2018-09-13T13:28:55.615Z,19.50
2018-09-13T13:31:23.585Z,19.60
2018-09-13T13:33:51.543Z,19.60
2018-09-13T13:36:19.575Z,19.60
2018-09-13T13:38:47.564Z,19.70
2018-09-13T13:41:15.587Z,19.70
2018-09-13T13:43:43.475Z,19.70
2018-09-13T13:46:11.421Z,19.70
2018-09-13T13:48:39.376Z,19.80
2018-09-13T13:51:07.444Z,19.80
2018-09-13T13:53:35.386Z,19.80
2018-09-13T13:56:03.328Z,19.70
2018-09-13T13:58:31.304Z,19.70
2018-09-13T14:00:59.304Z,19.70
2018-09-13T14:03:27.262Z,19.70
2018-09-13T14:05:55.207Z,19.70
2018-09-13T14:08:23.142Z,19.70
2018-09-13T14:10:51.117Z,19.70
2018-09-13T14:13:19.083Z,19.70
2018-09-13T14:15:47.103Z,19.70
2018-09-13T14:18:15.096Z,19.60
2018-09-13T14:20:43.090Z,19.60
2018-09-13T14:23:11.032Z,19.60
2018-09-13T14:25:39.019Z,19.70
2018-09-13T14:28:07.108Z,19.60
2018-09-13T14:30:35.087Z,19.50
2018-09-13T14:33:03.181Z,19.50
2018-09-13T14:35:31.254Z,19.50
2018-09-13T14:37:59.151Z,19.50
2018-09-13T14:40:27.128Z,19.50
2018-09-13T14:42:55.057Z,19.50
2018-09-13T14:45:23.012Z,19.50
2018-09-13T14:47:50.956Z,19.50
2018-09-13T14:50:18.902Z,19.50
2018-09-13T14:52:46.847Z,19.40
2018-09-13T14:55:14.799Z,19.40
2018-09-13T14:57:42.742Z,19.40
2018-09-13T15:00:10.760Z,19.40
2018-09-13T15:05:12.175Z,19.40
2018-09-13T15:07:40.128Z,19.40
2018-09-13T15:10:08.075Z,19.30
2018-09-13T15:12:36.048Z,19.30
2018-09-13T15:15:04.044Z,19.30
2018-09-13T15:17:31.988Z,19.40
2018-09-13T15:19:59.970Z,19.40
2018-09-13T15:22:27.971Z,19.50
2018-09-13T15:24:55.923Z,19.50
2018-09-13T15:27:23.870Z,19.50
2018-09-13T15:29:51.873Z,19.50
2018-09-13T15:32:19.813Z,19.50
2018-09-13T15:34:47.836Z,19.40
2018-09-13T15:37:15.813Z,19.30
2018-09-13T15:39:43.814Z,19.30
2018-09-13T15:42:12.411Z,19.40
2018-09-13T15:44:40.523Z,19.50
2018-09-13T15:47:08.479Z,19.50
2018-09-13T15:49:36.414Z,19.40
2018-09-13T15:52:04.371Z,19.40
2018-09-13T15:54:32.307Z,19.30
2018-09-13T15:57:00.562Z,19.30
2018-09-13T15:59:28.556Z,19.20
2018-09-13T16:01:56.492Z,19.10
2018-09-13T16:04:24.443Z,19.10
2018-09-13T16:06:52.380Z,19.00
2018-09-13T16:09:20.315Z,18.90
2018-09-13T16:11:48.272Z,18.80
2018-09-13T16:14:16.207Z,18.60
2018-09-13T16:16:44.203Z,18.60
2018-09-13T16:19:12.132Z,18.50
2018-09-13T16:21:40.116Z,18.50
2018-09-13T16:24:08.256Z,18.60
2018-09-13T16:26:36.223Z,18.60
2018-09-13T16:29:04.163Z,18.40
2018-09-13T16:31:32.167Z,18.40
2018-09-13T16:34:00.147Z,18.20
2018-09-13T16:36:29.360Z,18.20
2018-09-13T16:39:02.804Z,18.10
2018-09-13T16:43:44.165Z,18.10
2018-09-13T16:46:17.475Z,18.00
2018-09-13T16:48:45.412Z,18.20
2018-09-13T16:51:13.426Z,18.30
2018-09-13T16:53:41.407Z,18.20
2018-09-13T16:56:09.340Z,18.20
2018-09-13T16:58:37.276Z,18.20
2018-09-13T17:01:05.240Z,18.10
2018-09-13T17:03:33.181Z,18.20
2018-09-13T17:06:01.138Z,18.30
2018-09-13T17:08:29.083Z,18.20
2018-09-13T17:10:57.039Z,18.00
2018-09-13T17:13:25.016Z,18.00
2018-09-13T17:15:52.909Z,17.90
2018-09-13T17:18:20.962Z,17.90
2018-09-13T17:20:48.918Z,17.90
2018-09-13T17:23:16.898Z,17.90
2018-09-13T17:25:44.872Z,17.80
2018-09-13T17:28:12.806Z,17.70
2018-09-13T17:30:40.758Z,17.80
2018-09-13T17:33:08.725Z,17.90
2018-09-13T17:35:36.704Z,18.00
2018-09-13T17:38:04.672Z,18.10
2018-09-13T17:40:32.616Z,18.20
2018-09-13T17:43:00.552Z,18.20
2018-09-13T17:45:28.812Z,18.20
2018-09-13T17:47:56.850Z,18.20
2018-09-13T17:50:24.902Z,18.10
2018-09-13T17:52:53.140Z,18.10
2018-09-13T17:55:21.113Z,18.10
2018-09-13T17:57:49.092Z,18.00
2018-09-13T18:00:17.146Z,17.90
2018-09-13T18:02:45.404Z,17.90
2018-09-13T18:05:13.466Z,17.90
2018-09-13T18:07:41.520Z,17.80
2018-09-13T18:10:09.637Z,17.90
2018-09-13T18:12:37.587Z,17.90
2018-09-13T18:15:05.656Z,18.00
2018-09-13T18:17:33.629Z,17.90
2018-09-13T18:20:01.639Z,17.80
2018-09-13T18:22:29.612Z,17.80
2018-09-13T18:24:57.579Z,17.80
2018-09-13T18:27:25.590Z,17.80
2018-09-13T18:29:53.534Z,17.70
2018-09-13T18:32:21.585Z,17.70
2018-09-13T18:34:49.530Z,17.80
2018-09-13T18:37:17.641Z,17.90
2018-09-13T18:39:45.590Z,17.80
2018-09-13T18:42:13.567Z,17.70
2018-09-13T18:44:41.527Z,17.70
2018-09-13T18:47:09.475Z,17.70
2018-09-13T18:49:37.450Z,17.60
2018-09-13T18:52:05.488Z,17.60
2018-09-13T18:54:33.484Z,17.60
2018-09-13T18:57:01.429Z,17.50
2018-09-13T18:59:29.486Z,17.60
2018-09-13T19:01:57.580Z,17.60
2018-09-13T19:04:25.547Z,17.50
2018-09-13T19:06:53.508Z,17.40
2018-09-13T19:09:21.565Z,17.50
2018-09-13T19:11:49.531Z,17.60
2018-09-13T19:14:17.680Z,17.70
2018-09-13T19:16:45.682Z,17.80
2018-09-13T19:19:13.771Z,17.80
2018-09-13T19:21:41.873Z,17.70
2018-09-13T19:24:09.880Z,17.60
2018-09-13T19:26:37.775Z,17.60
2018-09-13T19:29:05.836Z,17.40
2018-09-13T19:31:33.968Z,17.50
2018-09-13T19:34:01.977Z,17.50
2018-09-13T19:36:29.955Z,17.60
2018-09-13T19:38:57.917Z,17.40
2018-09-13T19:41:26.011Z,17.30
2018-09-13T19:43:53.969Z,17.20
2018-09-13T19:46:21.925Z,17.10
2018-09-13T19:48:50.239Z,17.00
2018-09-13T19:51:18.253Z,17.00
2018-09-13T19:53:46.148Z,17.20
2018-09-13T19:56:14.108Z,17.40
2018-09-13T19:58:44.034Z,17.60
2018-09-13T20:01:11.961Z,17.70
2018-09-13T20:03:39.919Z,17.70
2018-09-13T20:06:07.894Z,17.80
2018-09-13T20:08:35.853Z,17.80
2018-09-13T20:11:03.820Z,17.80
2018-09-13T20:13:32.044Z,17.70
2018-09-13T20:15:59.978Z,17.60
2018-09-13T20:18:28.058Z,17.60
2018-09-13T20:20:55.945Z,17.60
2018-09-13T20:23:23.905Z,17.70
2018-09-13T20:25:51.844Z,17.70
2018-09-13T20:28:19.781Z,17.60
2018-09-13T20:30:47.763Z,17.60
2018-09-13T20:33:15.701Z,17.60
2018-09-13T20:35:43.872Z,17.60
2018-09-13T20:38:11.950Z,17.60
2018-09-13T20:40:39.908Z,17.60
2018-09-13T20:43:07.858Z,17.70
2018-09-13T20:45:35.862Z,17.70
2018-09-13T20:48:03.752Z,17.60
2018-09-13T20:50:31.736Z,17.40
2018-09-13T20:55:49.914Z,17.50
2018-09-13T20:58:17.922Z,17.50
2018-09-13T21:00:46.005Z,17.50
2018-09-13T21:03:14.219Z,17.60
2018-09-13T21:05:42.240Z,17.60
2018-09-13T21:08:10.183Z,17.60
2018-09-13T21:10:38.115Z,17.60
2018-09-13T21:13:06.072Z,17.60
2018-09-13T21:15:34.025Z,17.50
2018-09-13T21:18:01.973Z,17.50
2018-09-13T21:20:30.119Z,17.50
2018-09-13T21:22:58.051Z,17.50
2018-09-13T21:25:26.016Z,17.60
2018-09-13T21:27:53.960Z,17.60
2018-09-13T21:30:21.920Z,17.40
2018-09-13T21:32:49.953Z,17.50
2018-09-13T21:35:21.447Z,17.50
2018-09-13T21:37:49.408Z,17.50
2018-09-13T21:40:17.333Z,17.50
2018-09-13T21:42:45.297Z,17.40
2018-09-13T21:45:13.432Z,17.30
2018-09-13T21:47:41.412Z,17.40
2018-09-13T21:50:09.334Z,17.40
2018-09-13T21:52:37.329Z,17.40
2018-09-13T21:55:05.261Z,17.30
2018-09-13T21:57:33.221Z,17.30
2018-09-13T22:00:01.150Z,17.20
2018-09-13T22:02:29.073Z,17.30
2018-09-13T22:04:57.326Z,17.40
2018-09-13T22:07:25.264Z,17.40
2018-09-13T22:09:53.211Z,17.40
2018-09-13T22:12:21.183Z,17.40
2018-09-13T22:14:49.130Z,17.20
2018-09-13T22:17:17.127Z,17.30
2018-09-13T22:19:45.099Z,17.40
2018-09-13T22:22:13.102Z,17.40
2018-09-13T22:24:41.042Z,17.50
2018-09-13T22:27:09.014Z,17.50
2018-09-13T22:29:36.976Z,17.50
2018-09-13T22:32:04.894Z,17.50
2018-09-13T22:34:33.125Z,17.40
2018-09-13T22:37:01.045Z,17.40
2018-09-13T22:39:29.057Z,17.20
2018-09-13T22:41:57.006Z,17.30
2018-09-13T22:44:24.961Z,17.30
2018-09-13T22:46:52.916Z,17.20
2018-09-13T22:49:20.884Z,17.10
2018-09-13T22:51:48.939Z,17.20
2018-09-13T22:54:16.901Z,17.20
2018-09-13T22:56:44.843Z,17.30
2018-09-13T22:59:12.822Z,17.30
2018-09-13T23:01:40.763Z,17.20
2018-09-13T23:04:08.718Z,17.00
2018-09-13T23:06:39.834Z,16.90
2018-09-13T23:09:08.732Z,17.00
2018-09-13T23:11:36.773Z,17.10
2018-09-13T23:14:04.707Z,17.10
2018-09-13T23:16:32.678Z,17.10
2018-09-13T23:19:00.623Z,17.10
2018-09-13T23:21:31.546Z,17.00
2018-09-13T23:23:59.618Z,16.80
2018-09-13T23:26:27.720Z,16.80
2018-09-13T23:28:55.745Z,16.80
2018-09-13T23:31:23.751Z,16.70
2018-09-13T23:33:51.703Z,16.80
2018-09-13T23:36:19.657Z,16.80
2018-09-13T23:38:47.629Z,16.80
2018-09-13T23:41:15.591Z,16.80
2018-09-13T23:43:43.527Z,16.70
2018-09-13T23:46:11.506Z,16.80
2018-09-13T23:48:39.439Z,16.90
2018-09-13T23:51:07.600Z,17.10
2018-09-13T23:53:35.552Z,17.20
2018-09-13T23:56:03.678Z,17.30
2018-09-13T23:58:31.611Z,17.10
